ESMK

Kristianstad Airport

Kristianstad, Sweden
METAR ESMK 241120Z 32011KT CAVOK 13/05 Q1017
Observed Flight Rules
Sep-24 @ 11:20 UTC (11 minutes ago) Visual Flight Rules
Wind Visibility Clouds
320° at 11 knots 10,000+ meters
  • Clear skies
Temperatures Readings
Current 13°C / 55°F
Dewpoint 5°C / 41°F
Humidity 59%
Altimeter 30.03" Hg
Pressure 1017 hPa
Elevation 23
METAR ESMK 241120Z 32011KT CAVOK 13/05 Q1017
Observed Flight Rules
Sep-24 @ 11:20 UTC
(11 minutes ago)
VFR
Wind Visibility
320° at 11 knots 10,000+ meters
Clouds
  • Clear skies
Temperature Dewpoint
13°C / 55°F 5°C / 41°F
Humidity Altimeter Pressure
59% 30.03" Hg 1017 hPa